Главная страница
METAR-TAF:

METAR-TAF

Аэропорты :

Зенджан, Иран

широта: 36-41N, долгота: 048-29E, высота над уровнем моря: 1663 м

Текущие метеонаблюдения

Эта сводка был подготовлена 46 минут назад, в 10:00 UTC
Ветер 6 Узел от юго-восточный
Температура 30°C
Влажность 27%
Давление 1013 hPa
Видимость 10 км и более
небольшая облачность на высоте 3000 фута

METAR: OITZ 221000Z 14006KT 9999 FEW030 30/09 Q1012 A2991

Время: 15:16 (10:46 UTC)


TAF: отсутствует

Метеонаблюдения и прогнозы для более 4000 аэропортов (сводки METAR и TAF).

Имеющиеся станции представлены на карте желтыми и красными точками.

Чтобы увидеть название станции, наведите на нее мышь.

Затем щелкните, чтобы увидеть метеонаблюдения и метеопрогнозы.

Управление картой: чтобы увеличить масштаб, щелкните зеленые кнопки с черным крестиком; чтобы уменьшить масштаб, щелкните зеленую кнопку с тире; для просмотра соседних карт щелкайте зеленые стрелки.


METAR-TAF: